Time;durP1;ratioP1;P1;durP2;ratioP2;P2;SDS_P1;SDS_P2;PMS_P1;PMS_P2;Temp;Humidity;BMP_temperature;BMP_pressure;BME280_temperature;BME280_humidity;BME280_pressure;Samples;Min_cycle;Max_cycle;Signal;HPM_P1;HPM_P2
2021/04/13 00:01:13;;;;;;;12.25;10.95;;;2.30;99.90;;;;;;5048784;28;20228;-76
2021/04/13 00:03:45;;;;;;;13.85;11.25;;;2.20;99.90;;;;;;5053562;28;20642;-76
2021/04/13 00:06:33;;;;;;;15.18;10.80;;;2.10;99.90;;;;;;5051814;28;20299;-75
2021/04/13 00:09:22;;;;;;;11.85;10.13;;;2.00;99.90;;;;;;5040505;28;20196;-74
2021/04/13 00:12:09;;;;;;;12.15;10.52;;;2.00;99.90;;;;;;5042680;28;20310;-75
2021/04/13 00:14:40;;;;;;;12.57;10.70;;;1.90;99.90;;;;;;5050887;28;21139;-75
2021/04/13 00:17:17;;;;;;;14.40;11.07;;;1.90;99.90;;;;;;5041033;28;20277;-74
2021/04/13 00:19:51;;;;;;;13.68;11.68;;;1.90;99.90;;;;;;5035972;28;20208;-76
2021/04/13 00:22:19;;;;;;;14.60;11.90;;;1.80;99.90;;;;;;5052230;28;20220;-75
2021/04/13 00:24:46;;;;;;;15.13;12.48;;;1.80;99.90;;;;;;5053732;28;20200;-76
2021/04/13 00:27:14;;;;;;;13.63;10.30;;;1.80;99.90;;;;;;5034932;28;20220;-75
2021/04/13 00:29:41;;;;;;;13.20;10.52;;;1.80;99.90;;;;;;5049126;28;20209;-76
2021/04/13 00:32:10;;;;;;;14.77;12.77;;;1.80;99.90;;;;;;5047223;28;20234;-77
2021/04/13 00:34:58;;;;;;;17.85;12.55;;;1.70;99.90;;;;;;5052399;28;20229;-77
2021/04/13 00:37:26;;;;;;;13.52;11.82;;;1.70;99.90;;;;;;5049307;28;20247;-75
2021/04/13 00:40:13;;;;;;;18.40;13.10;;;1.70;99.90;;;;;;5033771;28;20292;-75
2021/04/13 00:42:41;;;;;;;13.63;12.02;;;1.60;99.90;;;;;;5053299;28;20660;-75
2021/04/13 00:45:14;;;;;;;17.40;12.77;;;1.60;99.90;;;;;;5048696;28;20224;-75
2021/04/13 00:47:43;;;;;;;17.85;13.43;;;1.60;99.90;;;;;;5052163;28;20177;-77
2021/04/13 00:50:32;;;;;;;18.00;13.63;;;1.50;99.90;;;;;;5051581;28;20200;-77
2021/04/13 00:53:03;;;;;;;16.63;13.35;;;1.50;99.90;;;;;;5052449;28;20252;-77
2021/04/13 00:55:46;;;;;;;16.10;12.27;;;1.40;99.90;;;;;;5038419;28;20274;-81
2021/04/13 00:58:18;;;;;;;15.73;13.05;;;1.30;99.90;;;;;;5052157;28;20295;-77
2021/04/13 01:00:56;;;;;;;18.38;13.63;;;1.30;99.90;;;;;;5030736;28;20699;-76
2021/04/13 01:03:23;;;;;;;16.50;13.30;;;1.30;99.90;;;;;;5052942;28;20594;-78
2021/04/13 01:05:57;;;;;;;17.40;13.20;;;1.30;99.90;;;;;;5050959;28;20228;-77
2021/04/13 01:08:39;;;;;;;17.58;13.70;;;1.40;99.90;;;;;;5048322;28;20243;-77
2021/04/13 01:11:24;;;;;;;18.02;12.88;;;1.40;99.90;;;;;;5063326;28;20274;-77
2021/04/13 01:13:57;;;;;;;17.90;13.98;;;1.50;99.90;;;;;;5051505;28;20590;-77
2021/04/13 01:16:31;;;;;;;18.77;14.30;;;1.50;99.90;;;;;;5046482;28;20228;-77
2021/04/13 01:19:11;;;;;;;18.40;14.43;;;1.50;99.90;;;;;;5035856;28;20184;-77
2021/04/13 01:22:05;;;;;;;17.70;14.00;;;1.50;99.90;;;;;;5050672;28;20297;-77
2021/04/13 01:24:37;;;;;;;21.25;15.02;;;1.60;99.90;;;;;;5044765;28;20635;-78
2021/04/13 01:27:10;;;;;;;17.63;14.85;;;1.60;99.90;;;;;;5036505;28;20220;-78
2021/04/13 01:29:38;;;;;;;17.77;15.02;;;1.60;99.90;;;;;;5050288;28;20589;-77
2021/04/13 01:32:07;;;;;;;18.17;14.65;;;1.60;99.90;;;;;;5051683;28;20252;-77
2021/04/13 01:34:45;;;;;;;20.48;16.70;;;1.60;99.90;;;;;;5052504;28;20194;-77
2021/04/13 01:40:41;;;;;;;18.45;14.18;;;1.60;99.90;;;;;;5032796;28;20276;-77
2021/04/13 01:43:08;;;;;;;18.45;15.05;;;1.60;99.90;;;;;;5037957;28;20193;-76
2021/04/13 01:45:36;;;;;;;19.88;15.25;;;1.50;99.90;;;;;;5046400;28;20225;-76
2021/04/13 01:48:06;;;;;;;20.92;16.30;;;1.60;99.90;;;;;;5038346;28;20192;-76
2021/04/13 01:50:39;;;;;;;19.05;15.23;;;1.50;99.90;;;;;;5050435;28;20270;-79
2021/04/13 01:53:14;;;;;;;19.00;16.33;;;1.60;99.90;;;;;;5050142;28;20277;-77
2021/04/13 01:56:03;;;;;;;18.48;15.25;;;1.50;99.90;;;;;;5050906;28;20307;-75
2021/04/13 01:58:44;;;;;;;18.30;14.70;;;1.50;99.90;;;;;;5034521;28;20242;-77
2021/04/13 02:01:22;;;;;;;20.40;15.10;;;1.60;99.90;;;;;;5035779;28;20220;-77
2021/04/13 02:04:00;;;;;;;18.58;15.52;;;1.60;99.90;;;;;;5064558;28;20189;-77
2021/04/13 02:06:36;;;;;;;23.77;15.95;;;1.60;99.90;;;;;;5051452;28;20649;-75
2021/04/13 02:09:34;;;;;;;23.27;17.17;;;1.60;99.90;;;;;;5030451;28;20701;-75
2021/04/13 02:12:09;;;;;;;20.77;16.83;;;1.60;99.90;;;;;;5038070;28;20648;-76
2021/04/13 02:14:41;;;;;;;23.25;16.40;;;1.60;99.90;;;;;;5031017;28;20211;-76
2021/04/13 02:17:23;;;;;;;20.60;16.08;;;1.60;99.90;;;;;;5038480;28;20327;-76
2021/04/13 02:19:54;;;;;;;20.08;16.20;;;1.70;99.90;;;;;;5050806;28;20271;-74
2021/04/13 02:22:22;;;;;;;21.92;16.02;;;1.70;99.90;;;;;;5049573;28;20220;-76
2021/04/13 02:24:53;;;;;;;23.67;15.63;;;1.60;99.90;;;;;;5046371;28;20772;-76
2021/04/13 02:27:28;;;;;;;19.27;16.08;;;1.60;99.90;;;;;;5049622;28;20228;-76
2021/04/13 02:30:14;;;;;;;18.05;14.38;;;1.60;99.90;;;;;;5046212;28;20228;-78
2021/04/13 02:32:45;;;;;;;24.48;16.88;;;1.60;99.90;;;;;;5047054;28;20270;-76
2021/04/13 02:35:22;;;;;;;24.65;18.30;;;1.60;99.90;;;;;;5040220;28;20205;-76
2021/04/13 02:38:01;;;;;;;22.30;16.73;;;1.60;99.90;;;;;;5051460;28;20725;-76
2021/04/13 02:40:37;;;;;;;17.63;15.00;;;1.60;99.90;;;;;;5048995;28;20231;-76
2021/04/13 02:43:14;;;;;;;22.75;17.20;;;1.60;99.90;;;;;;5051782;28;20204;-76
2021/04/13 02:45:53;;;;;;;21.75;16.08;;;1.60;99.90;;;;;;5038615;28;20234;-75
2021/04/13 02:48:23;;;;;;;21.35;16.88;;;1.50;99.90;;;;;;5051310;28;20200;-75
2021/04/13 02:50:51;;;;;;;25.00;18.25;;;1.50;99.90;;;;;;5049540;28;20255;-77
2021/04/13 02:53:22;;;;;;;21.95;16.38;;;1.50;99.90;;;;;;5049509;28;20216;-76
2021/04/13 02:55:55;;;;;;;23.65;16.17;;;1.50;99.90;;;;;;5032052;28;20739;-76
2021/04/13 02:58:26;;;;;;;23.63;17.50;;;1.40;99.90;;;;;;5055208;28;20232;-75
2021/04/13 03:00:58;;;;;;;22.10;17.48;;;1.40;99.90;;;;;;5052714;28;20638;-74
2021/04/13 03:03:35;;;;;;;22.05;16.73;;;1.40;99.90;;;;;;5052347;28;20220;-77
2021/04/13 03:06:02;;;;;;;20.27;16.40;;;1.30;99.90;;;;;;5065374;28;20768;-75
2021/04/13 03:08:34;;;;;;;20.23;16.50;;;1.30;99.90;;;;;;5054365;28;20320;-77
2021/04/13 03:11:12;;;;;;;20.55;15.45;;;1.30;99.90;;;;;;5048803;28;20228;-75
2021/04/13 03:13:39;;;;;;;19.15;15.30;;;1.30;99.90;;;;;;5055139;28;20292;-77
2021/04/13 03:16:06;;;;;;;19.52;15.15;;;1.30;99.90;;;;;;5035240;28;20229;-77
2021/04/13 03:18:39;;;;;;;20.75;16.05;;;1.30;99.90;;;;;;5054259;28;20698;-75
2021/04/13 03:21:15;;;;;;;22.70;17.38;;;1.30;99.90;;;;;;5052898;28;20277;-76
2021/04/13 03:23:43;;;;;;;17.83;14.60;;;1.30;99.90;;;;;;5038996;28;20303;-75
2021/04/13 03:26:18;;;;;;;19.50;16.35;;;1.30;99.90;;;;;;5048024;28;20232;-75
2021/04/13 03:28:52;;;;;;;21.95;16.48;;;1.20;99.90;;;;;;5053935;28;20298;-75
2021/04/13 03:31:21;;;;;;;17.80;15.27;;;1.20;99.90;;;;;;5052632;28;20220;-76
2021/04/13 03:33:48;;;;;;;20.38;15.93;;;1.10;99.90;;;;;;5055074;28;20709;-77
2021/04/13 03:36:21;;;;;;;20.73;16.63;;;1.10;99.90;;;;;;5053610;28;20296;-75
2021/04/13 03:38:58;;;;;;;19.20;15.70;;;1.10;99.90;;;;;;5050733;28;20220;-76
2021/04/13 03:41:26;;;;;;;21.27;15.77;;;1.10;99.90;;;;;;5039450;28;20613;-75
2021/04/13 03:44:01;;;;;;;23.67;16.23;;;1.10;99.90;;;;;;5053449;28;20231;-75
2021/04/13 03:46:34;;;;;;;22.83;16.15;;;1.10;99.90;;;;;;5041817;28;20251;-76
2021/04/13 03:49:04;;;;;;;23.25;16.55;;;1.10;99.90;;;;;;5054866;28;20238;-75
2021/04/13 03:51:38;;;;;;;23.80;15.25;;;1.10;99.90;;;;;;5054009;28;20216;-75
2021/04/13 03:54:27;;;;;;;24.50;16.80;;;1.10;99.90;;;;;;5049242;28;20216;-75
2021/04/13 03:56:56;;;;;;;20.92;16.52;;;1.10;99.90;;;;;;5043653;28;20255;-75
2021/04/13 03:59:32;;;;;;;20.92;16.08;;;1.20;99.90;;;;;;5052586;28;20189;-76
2021/04/13 04:01:58;;;;;;;22.50;14.98;;;1.20;99.90;;;;;;5042310;28;20689;-76
2021/04/13 04:04:32;;;;;;;21.80;17.17;;;1.20;99.90;;;;;;5054826;28;20257;-75
2021/04/13 04:07:18;;;;;;;22.10;16.23;;;1.20;99.90;;;;;;5051594;28;20689;-76
2021/04/13 04:09:44;;;;;;;21.45;15.80;;;1.20;99.90;;;;;;5046170;28;20197;-76
2021/04/13 04:12:29;;;;;;;25.48;17.17;;;1.30;99.90;;;;;;5044512;28;20315;-76
2021/04/13 04:15:07;;;;;;;23.05;16.55;;;1.30;99.90;;;;;;5047635;28;20284;-76
2021/04/13 04:17:36;;;;;;;21.50;15.65;;;1.30;99.90;;;;;;5048622;28;20571;-77
2021/04/13 04:20:08;;;;;;;21.75;16.92;;;1.30;99.90;;;;;;5053268;28;20631;-76
2021/04/13 04:22:43;;;;;;;16.00;14.13;;;1.30;99.90;;;;;;5052438;28;20204;-77
2021/04/13 04:25:30;;;;;;;23.83;14.75;;;1.30;99.90;;;;;;5032095;28;20267;-76
2021/04/13 04:28:00;;;;;;;23.52;16.70;;;1.40;99.90;;;;;;5049852;28;20272;-76
2021/04/13 04:30:33;;;;;;;23.60;17.45;;;1.40;99.90;;;;;;5044070;28;20307;-75
2021/04/13 04:33:03;;;;;;;17.67;14.63;;;1.40;99.90;;;;;;5033200;28;20216;-75
2021/04/13 04:35:41;;;;;;;23.42;16.52;;;1.40;99.90;;;;;;5052884;28;20248;-76
2021/04/13 04:38:14;;;;;;;19.33;15.38;;;1.40;99.90;;;;;;5052829;28;20311;-75
2021/04/13 04:40:49;;;;;;;22.55;17.10;;;1.40;99.90;;;;;;5051482;28;20227;-75
2021/04/13 04:43:20;;;;;;;22.35;16.75;;;1.40;99.90;;;;;;5052081;28;20201;-76
2021/04/13 04:45:48;;;;;;;21.63;16.33;;;1.40;99.90;;;;;;5040156;28;20282;-76
2021/04/13 04:48:23;;;;;;;17.02;13.57;;;1.40;99.90;;;;;;5052286;28;20600;-75
2021/04/13 04:50:52;;;;;;;23.75;16.50;;;1.40;99.90;;;;;;5035101;28;20279;-76
2021/04/13 04:53:19;;;;;;;19.17;15.80;;;1.30;99.90;;;;;;5048127;28;20205;-76
2021/04/13 04:55:51;;;;;;;22.30;15.98;;;1.40;99.90;;;;;;5063637;28;20236;-75
2021/04/13 04:58:19;;;;;;;19.75;15.57;;;1.40;99.90;;;;;;5053075;28;20212;-76
2021/04/13 05:00:47;;;;;;;22.38;15.30;;;1.40;99.90;;;;;;5047702;28;20265;-75
2021/04/13 05:03:16;;;;;;;18.92;14.75;;;1.50;99.90;;;;;;5031832;28;20208;-76
2021/04/13 05:05:45;;;;;;;20.35;14.13;;;1.40;99.90;;;;;;5046128;28;20220;-76
2021/04/13 05:08:12;;;;;;;21.52;14.60;;;1.40;99.90;;;;;;5033010;28;20208;-76
2021/04/13 05:10:39;;;;;;;20.60;15.10;;;1.40;99.90;;;;;;5049301;28;20730;-75
2021/04/13 05:13:05;;;;;;;22.25;14.85;;;1.30;99.90;;;;;;5060296;28;20220;-76
2021/04/13 05:15:35;;;;;;;23.95;16.20;;;1.30;99.90;;;;;;5041349;28;20229;-76
2021/04/13 05:18:06;;;;;;;23.50;15.68;;;1.30;99.90;;;;;;5049848;28;20308;-76
2021/04/13 05:20:33;;;;;;;20.70;15.40;;;1.30;99.90;;;;;;5052156;28;20220;-75
2021/04/13 05:22:59;;;;;;;23.25;15.25;;;1.30;99.90;;;;;;5049193;28;20765;-77
2021/04/13 05:25:33;;;;;;;19.42;15.57;;;1.30;99.90;;;;;;5051716;28;20224;-75
2021/04/13 05:27:59;;;;;;;22.95;17.27;;;1.30;99.90;;;;;;5051807;28;20220;-75
2021/04/13 05:30:27;;;;;;;23.75;16.85;;;1.40;99.90;;;;;;5037613;28;20307;-75
2021/04/13 05:32:54;;;;;;;25.35;18.25;;;1.50;99.90;;;;;;5051314;28;20552;-76
2021/04/13 05:35:23;;;;;;;23.38;18.50;;;1.60;99.90;;;;;;5031924;28;20224;-75
2021/04/13 05:37:50;;;;;;;24.88;19.10;;;1.70;99.90;;;;;;5037910;28;20698;-73
2021/04/13 05:40:29;;;;;;;24.02;15.77;;;1.90;99.90;;;;;;5048949;28;20205;-74
2021/04/13 05:42:57;;;;;;;25.67;15.60;;;2.00;99.90;;;;;;5044272;28;20204;-76
2021/04/13 05:45:27;;;;;;;24.42;16.10;;;2.10;99.90;;;;;;5047234;28;20641;-74
2021/04/13 05:47:58;;;;;;;17.05;13.55;;;2.20;99.90;;;;;;5046252;28;20217;-74
2021/04/13 05:50:28;;;;;;;20.48;15.23;;;2.30;99.90;;;;;;5041548;28;20228;-76
2021/04/13 05:52:55;;;;;;;21.67;15.60;;;2.50;99.90;;;;;;5051908;28;20208;-76
2021/04/13 05:55:22;;;;;;;22.23;17.35;;;2.70;99.90;;;;;;5047319;28;20227;-77
2021/04/13 05:57:53;;;;;;;26.27;18.52;;;2.70;99.90;;;;;;5051501;28;20232;-77
2021/04/13 06:00:23;;;;;;;23.95;18.73;;;2.90;99.90;;;;;;5049378;28;20239;-76
2021/04/13 06:02:52;;;;;;;24.25;18.92;;;3.10;99.90;;;;;;5052405;28;20226;-76
2021/04/13 06:05:22;;;;;;;25.05;20.25;;;3.00;99.90;;;;;;5049802;28;20236;-77
2021/04/13 06:07:48;;;;;;;20.17;18.08;;;3.00;99.90;;;;;;5050003;28;20609;-78
2021/04/13 06:10:16;;;;;;;22.27;18.10;;;3.00;99.90;;;;;;5047478;28;20330;-78
2021/04/13 06:12:53;;;;;;;19.85;16.33;;;3.00;99.90;;;;;;5046789;28;20316;-79
2021/04/13 06:15:23;;;;;;;22.27;17.27;;;3.10;99.90;;;;;;5046343;28;20304;-79
2021/04/13 06:17:50;;;;;;;21.48;16.92;;;3.30;99.90;;;;;;5049996;28;20212;-79
2021/04/13 06:20:21;;;;;;;18.75;14.63;;;3.30;99.90;;;;;;5049502;28;20595;-79
2021/04/13 06:22:53;;;;;;;20.85;14.70;;;3.40;99.90;;;;;;5052146;28;20204;-76
2021/04/13 06:25:24;;;;;;;23.10;15.73;;;3.50;99.90;;;;;;5043846;28;20304;-79
2021/04/13 06:27:52;;;;;;;18.55;15.40;;;3.50;99.90;;;;;;5050776;28;20204;-77
2021/04/13 06:30:20;;;;;;;17.88;14.05;;;3.60;99.90;;;;;;5031312;28;21196;-76
2021/04/13 06:32:48;;;;;;;19.70;14.45;;;3.60;99.90;;;;;;5052146;28;20290;-77
2021/04/13 06:35:16;;;;;;;19.60;14.13;;;3.70;99.90;;;;;;5050843;28;20685;-77
2021/04/13 06:37:44;;;;;;;18.70;14.48;;;3.70;99.90;;;;;;5045546;28;20275;-76
2021/04/13 06:40:37;;;;;;;20.05;15.30;;;3.70;99.90;;;;;;5046898;28;20239;-75
2021/04/13 06:43:37;;;;;;;17.65;13.38;;;3.70;99.90;;;;;;5049058;28;20216;-76
2021/04/13 06:46:24;;;;;;;18.73;14.27;;;3.90;99.90;;;;;;5044032;28;20740;-79
2021/04/13 06:48:59;;;;;;;16.60;11.82;;;4.00;99.90;;;;;;5030460;28;20705;-77
2021/04/13 06:51:32;;;;;;;14.57;11.88;;;4.10;99.90;;;;;;5047530;28;20224;-77
2021/04/13 06:54:29;;;;;;;16.90;11.13;;;4.30;99.90;;;;;;5032969;28;20303;-78
2021/04/13 06:57:22;;;;;;;11.93;9.57;;;4.40;99.90;;;;;;5045273;28;20220;-76
2021/04/13 07:00:00;;;;;;;10.45;8.60;;;4.60;99.90;;;;;;5045874;28;20212;-75
2021/04/13 07:02:38;;;;;;;12.75;8.45;;;4.80;99.90;;;;;;5064158;28;20220;-78
2021/04/13 07:05:21;;;;;;;14.02;9.40;;;5.10;99.90;;;;;;5049050;28;20211;-74
2021/04/13 07:07:57;;;;;;;14.88;10.73;;;5.20;99.90;;;;;;5048337;28;20547;-76
2021/04/13 07:10:34;;;;;;;13.95;8.10;;;5.30;99.90;;;;;;5048134;28;20757;-77
2021/04/13 07:13:28;;;;;;;10.60;8.27;;;5.40;99.90;;;;;;5049525;28;20220;-75
2021/04/13 07:16:15;;;;;;;9.13;8.10;;;5.50;99.90;;;;;;5047939;28;20295;-75
2021/04/13 07:18:57;;;;;;;16.13;8.90;;;5.50;99.90;;;;;;5049963;28;20216;-76
2021/04/13 07:21:42;;;;;;;13.82;10.02;;;5.60;99.90;;;;;;5050336;28;20566;-77
2021/04/13 07:24:51;;;;;;;13.75;9.80;;;5.50;99.90;;;;;;5047416;28;20403;-75
2021/04/13 07:27:30;;;;;;;15.80;8.52;;;5.40;99.90;;;;;;5045185;28;20220;-76
2021/04/13 07:30:11;;;;;;;16.15;8.68;;;5.40;99.90;;;;;;5048834;28;20208;-77
2021/04/13 07:32:37;;;;;;;11.50;9.57;;;5.60;99.90;;;;;;5049294;28;20343;-76
2021/04/13 07:35:16;;;;;;;10.27;8.40;;;5.80;99.90;;;;;;5050060;28;20229;-76
2021/04/13 07:37:48;;;;;;;13.52;9.20;;;5.90;99.90;;;;;;5049301;28;20208;-76
2021/04/13 07:40:36;;;;;;;13.48;9.25;;;6.00;99.90;;;;;;5038174;28;20228;-76
2021/04/13 07:43:23;;;;;;;13.35;8.57;;;6.00;99.90;;;;;;5036089;28;20219;-75
2021/04/13 07:45:52;;;;;;;10.10;8.35;;;6.00;99.90;;;;;;5061194;28;20601;-75
2021/04/13 07:48:41;;;;;;;12.05;8.02;;;6.10;99.90;;;;;;5054099;28;20216;-75
2021/04/13 07:51:39;;;;;;;15.88;8.15;;;6.10;99.90;;;;;;5052696;28;20232;-74
2021/04/13 07:54:13;;;;;;;11.00;8.93;;;6.00;99.90;;;;;;5050375;28;20216;-76
2021/04/13 07:56:44;;;;;;;15.68;9.30;;;5.90;99.90;;;;;;5052059;28;20220;-76
2021/04/13 07:59:51;;;;;;;12.55;8.93;;;6.00;99.90;;;;;;5053282;28;20227;-75
2021/04/13 08:02:18;;;;;;;12.13;8.35;;;6.00;99.90;;;;;;5039360;28;20274;-76
2021/04/13 08:04:49;;;;;;;15.38;7.63;;;6.10;99.90;;;;;;5069083;28;20212;-77
2021/04/13 08:07:34;;;;;;;13.00;8.52;;;6.10;99.90;;;;;;5051414;28;20213;-77
2021/04/13 08:10:27;;;;;;;16.40;9.15;;;6.30;99.90;;;;;;5037601;28;20271;-76
2021/04/13 08:13:00;;;;;;;11.82;8.75;;;6.40;99.90;;;;;;5036453;28;20208;-79
2021/04/13 08:16:06;;;;;;;17.67;8.50;;;6.70;99.90;;;;;;5051905;28;20228;-77
2021/04/13 08:18:37;;;;;;;8.85;7.97;;;7.10;99.90;;;;;;5031366;28;20721;-77
2021/04/13 08:21:18;;;;;;;10.90;8.27;;;7.40;99.90;;;;;;5013717;28;20213;-78
2021/04/13 08:23:52;;;;;;;10.10;6.93;;;7.70;99.90;;;;;;5045490;28;20458;-78
2021/04/13 08:26:26;;;;;;;14.07;7.13;;;8.00;99.90;;;;;;5041583;28;20539;-78
2021/04/13 08:29:14;;;;;;;17.43;7.93;;;8.40;99.90;;;;;;5054717;28;20439;-76
2021/04/13 08:35:30;;;;;;;15.83;8.07;;;8.90;99.90;;;;;;5050641;28;20482;-77
2021/04/13 08:38:16;;;;;;;8.53;7.10;;;9.40;99.90;;;;;;5035415;28;20547;-77
2021/04/13 08:41:02;;;;;;;10.27;8.33;;;9.50;99.90;;;;;;5037124;28;20470;-77
2021/04/13 08:43:58;;;;;;;10.47;7.43;;;9.40;99.90;;;;;;5052729;28;20462;-78
2021/04/13 08:46:27;;;;;;;11.50;7.83;;;9.50;99.90;;;;;;5044250;28;20471;-79
2021/04/13 08:49:34;;;;;;;11.03;7.23;;;9.70;99.90;;;;;;5052963;28;20821;-79
2021/04/13 08:52:17;;;;;;;7.07;5.70;;;9.90;99.90;;;;;;5045345;28;20467;-77
2021/04/13 08:54:49;;;;;;;5.90;4.80;;;10.30;99.90;;;;;;5051155;28;20444;-79
2021/04/13 08:57:18;;;;;;;9.23;4.03;;;10.50;99.90;;;;;;5053548;28;20546;-78
2021/04/13 08:59:51;;;;;;;4.33;3.60;;;10.30;99.90;;;;;;5049615;28;21046;-77
2021/04/13 09:02:38;;;;;;;5.93;3.80;;;9.90;99.90;;;;;;5025530;28;20477;-78
2021/04/13 09:05:20;;;;;;;9.00;4.23;;;9.30;99.90;;;;;;5050599;28;20453;-77
2021/04/13 09:07:47;;;;;;;6.30;3.40;;;8.90;99.90;;;;;;5053579;28;20450;-77
2021/04/13 09:10:41;;;;;;;8.07;3.53;;;8.60;99.90;;;;;;5050057;28;20525;-77
2021/04/13 09:13:15;;;;;;;5.30;2.93;;;8.10;99.90;;;;;;5033318;28;20472;-77
2021/04/13 09:15:59;;;;;;;4.43;2.73;;;7.90;99.90;;;;;;5049626;28;20910;-77
2021/04/13 09:18:49;;;;;;;6.13;2.73;;;7.60;99.90;;;;;;5051568;28;20502;-77
2021/04/13 09:21:25;;;;;;;5.93;2.70;;;7.70;99.90;;;;;;5038167;28;20532;-77
2021/04/13 09:24:19;;;;;;;6.60;3.47;;;7.90;99.90;;;;;;5051408;28;20952;-79
2021/04/13 09:26:57;;;;;;;4.50;2.43;;;8.30;99.90;;;;;;5052383;28;20471;-77
2021/04/13 09:29:32;;;;;;;7.47;2.93;;;8.70;99.90;;;;;;5051786;28;20459;-77
2021/04/13 09:32:07;;;;;;;6.50;3.13;;;8.90;99.90;;;;;;5032609;28;20467;-76
2021/04/13 09:34:49;;;;;;;6.67;3.23;;;9.00;99.90;;;;;;5046827;28;20473;-77
2021/04/13 09:37:55;;;;;;;5.70;2.03;;;8.80;99.90;;;;;;5049885;28;20458;-77
2021/04/13 09:40:39;;;;;;;4.20;2.27;;;8.40;99.90;;;;;;5046728;28;20980;-77
2021/04/13 09:43:29;;;;;;;4.23;3.07;;;8.10;99.90;;;;;;5032822;28;20827;-75
2021/04/13 09:46:14;;;;;;;8.18;2.88;;;7.90;99.90;;;;;;5048536;28;20927;-77
2021/04/13 09:49:13;;;;;;;6.28;2.28;;;7.70;99.90;;;;;;5050868;28;20214;-77
2021/04/13 09:52:17;;;;;;;6.97;2.80;;;7.60;99.90;;;;;;5050073;28;20216;-75
2021/04/13 09:54:52;;;;;;;4.05;2.20;;;7.40;99.90;;;;;;5032279;28;20220;-75
2021/04/13 09:57:45;;;;;;;5.93;2.97;;;7.20;99.90;;;;;;5031934;28;20224;-76
2021/04/13 10:00:40;;;;;;;7.95;2.65;;;7.10;99.90;;;;;;5037890;28;20270;-76
2021/04/13 10:03:29;;;;;;;3.30;2.03;;;7.40;99.90;;;;;;5033112;28;20181;-74
2021/04/13 10:05:59;;;;;;;5.50;2.50;;;7.60;99.90;;;;;;5042511;28;20657;-77
2021/04/13 10:08:41;;;;;;;6.03;3.65;;;7.50;99.90;;;;;;5039781;28;20239;-76
2021/04/13 10:11:07;;;;;;;5.85;2.67;;;7.40;99.90;;;;;;5035986;28;20220;-77
2021/04/13 10:13:52;;;;;;;3.05;2.35;;;7.40;99.90;;;;;;5050779;28;20196;-75
2021/04/13 10:16:53;;;;;;;4.45;2.50;;;7.50;99.90;;;;;;5033837;28;20240;-77
2021/04/13 10:19:53;;;;;;;4.28;2.78;;;7.50;99.90;;;;;;5035681;28;20231;-76
2021/04/13 10:23:06;;;;;;;8.27;2.65;;;7.40;99.90;;;;;;5049794;28;20236;-76
2021/04/13 10:26:08;;;;;;;8.75;2.90;;;7.40;99.90;;;;;;5045869;28;20293;-74
2021/04/13 10:28:40;;;;;;;6.68;2.63;;;7.50;99.90;;;;;;5044010;28;20215;-75
2021/04/13 10:31:06;;;;;;;4.60;2.60;;;7.70;99.90;;;;;;5030538;28;20770;-77
2021/04/13 10:34:04;;;;;;;2.85;1.70;;;7.90;99.90;;;;;;5046153;28;20194;-75
2021/04/13 10:36:55;;;;;;;5.20;1.80;;;7.90;99.90;;;;;;5050132;28;20232;-75
2021/04/13 10:40:13;;;;;;;4.40;1.98;;;8.00;99.10;;;;;;5045441;28;20297;-76
2021/04/13 10:43:11;;;;;;;7.20;3.00;;;7.80;99.00;;;;;;5019486;28;20222;-75
2021/04/13 10:46:15;;;;;;;4.45;2.70;;;7.80;99.60;;;;;;5039709;28;20223;-75
2021/04/13 10:49:07;;;;;;;6.90;2.55;;;7.90;99.90;;;;;;5049195;28;20557;-75
2021/04/13 10:51:45;;;;;;;4.38;2.90;;;8.00;99.90;;;;;;5050653;28;20295;-76
2021/04/13 10:54:43;;;;;;;4.00;2.58;;;8.30;97.90;;;;;;5048849;28;20653;-75
2021/04/13 10:57:15;;;;;;;3.20;2.23;;;8.70;95.30;;;;;;5022818;28;20223;-74
2021/04/13 11:00:19;;;;;;;4.87;2.43;;;8.90;95.10;;;;;;5031153;28;20553;-76
2021/04/13 11:02:57;;;;;;;7.97;2.27;;;9.10;97.70;;;;;;5035706;28;20995;-76
2021/04/13 11:06:10;;;;;;;8.23;3.73;;;9.20;93.20;;;;;;5049440;28;20514;-75
2021/04/13 11:08:55;;;;;;;5.53;2.70;;;9.00;94.60;;;;;;5040790;28;20834;-77
2021/04/13 11:11:54;;;;;;;3.63;1.90;;;8.80;95.80;;;;;;5050058;28;20466;-75
2021/04/13 11:14:32;;;;;;;9.40;2.90;;;8.70;94.70;;;;;;4995428;28;20473;-75
2021/04/13 11:17:28;;;;;;;7.22;3.42;;;8.60;92.90;;;;;;5037649;28;20221;-77
2021/04/13 11:20:27;;;;;;;4.80;2.50;;;8.70;94.20;;;;;;5054299;28;20299;-75
2021/04/13 11:23:22;;;;;;;4.38;1.90;;;8.70;94.60;;;;;;5052751;28;20841;-77
2021/04/13 11:26:10;;;;;;;8.13;3.43;;;8.90;94.90;;;;;;5068893;28;20732;-79
2021/04/13 11:28:58;;;;;;;5.87;2.90;;;9.20;95.40;;;;;;5055148;28;20505;-80
2021/04/13 11:31:40;;;;;;;7.90;3.00;;;9.50;93.10;;;;;;5037083;28;20532;-77
2021/04/13 11:34:50;;;;;;;2.00;1.70;;;9.60;92.90;;;;;;5050218;28;20459;-78
2021/04/13 11:37:28;;;;;;;5.23;2.23;;;9.70;91.50;;;;;;5033110;28;20476;-75
2021/04/13 11:40:32;;;;;;;5.17;2.37;;;9.90;90.70;;;;;;5039109;28;20504;-74
2021/04/13 11:42:59;;;;;;;2.67;2.10;;;9.90;91.90;;;;;;5052708;28;20465;-75
2021/04/13 11:45:51;;;;;;;4.40;1.90;;;9.90;90.80;;;;;;5037070;28;20471;-76
2021/04/13 11:48:45;;;;;;;5.10;2.10;;;9.80;90.30;;;;;;5038645;28;20810;-77
2021/04/13 11:51:34;;;;;;;3.00;2.10;;;9.70;90.70;;;;;;5052496;28;20479;-75
2021/04/13 11:54:39;;;;;;;5.20;2.17;;;9.40;93.10;;;;;;5043011;28;20452;-76
2021/04/13 11:57:14;;;;;;;4.13;2.20;;;9.20;93.90;;;;;;5051050;28;20828;-76
2021/04/13 11:59:41;;;;;;;6.57;2.00;;;9.20;90.40;;;;;;5050552;28;20476;-77
2021/04/13 12:02:30;;;;;;;6.13;2.17;;;9.00;91.00;;;;;;5053761;28;20553;-78
2021/04/13 12:04:57;;;;;;;3.87;1.53;;;9.00;90.30;;;;;;5053904;28;20537;-78
2021/04/13 12:07:54;;;;;;;7.87;1.77;;;9.10;90.40;;;;;;5053255;28;20466;-77
2021/04/13 12:10:32;;;;;;;3.07;1.30;;;9.40;87.70;;;;;;5025669;28;20909;-78
2021/04/13 12:13:10;;;;;;;3.47;1.50;;;9.40;81.00;;;;;;5053377;28;20480;-74
2021/04/13 12:15:51;;;;;;;3.03;1.47;;;9.40;84.00;;;;;;5036621;28;20506;-77
2021/04/13 12:18:36;;;;;;;2.13;1.33;;;9.40;83.90;;;;;;5053742;28;20990;-77
2021/04/13 12:21:22;;;;;;;4.63;1.77;;;9.20;88.30;;;;;;5051750;28;20880;-76
2021/04/13 12:24:03;;;;;;;4.47;1.90;;;9.10;87.80;;;;;;5047106;28;20967;-77
2021/04/13 12:26:37;;;;;;;2.60;1.47;;;9.10;89.80;;;;;;5050735;28;20457;-77
2021/04/13 12:29:32;;;;;;;7.17;1.70;;;9.00;84.20;;;;;;5052781;28;20450;-77
2021/04/13 12:32:13;;;;;;;2.87;1.53;;;9.00;87.30;;;;;;5051824;28;20459;-76
2021/04/13 12:34:44;;;;;;;4.30;1.37;;;8.90;91.60;;;;;;5052332;28;20504;-78
2021/04/13 12:37:34;;;;;;;5.03;2.07;;;8.80;91.90;;;;;;5052702;28;20477;-74
2021/04/13 12:40:21;;;;;;;2.30;0.90;;;8.70;90.80;;;;;;5034327;28;20465;-78
2021/04/13 12:42:54;;;;;;;3.85;1.15;;;8.80;88.00;;;;;;5050655;28;20217;-77
2021/04/13 12:45:21;;;;;;;4.40;1.60;;;8.70;88.20;;;;;;5044395;28;20272;-76
2021/04/13 12:48:11;;;;;;;3.03;1.35;;;8.70;88.70;;;;;;5049319;28;20247;-77
2021/04/13 12:50:41;;;;;;;4.38;2.47;;;8.60;90.70;;;;;;5052629;28;20225;-77
2021/04/13 12:53:15;;;;;;;4.83;2.63;;;8.70;90.50;;;;;;5053100;28;20213;-77
2021/04/13 12:55:44;;;;;;;6.13;3.30;;;9.00;90.20;;;;;;5050734;28;21038;-76
2021/04/13 12:58:21;;;;;;;5.70;3.03;;;9.20;87.70;;;;;;5052869;28;20478;-76
2021/04/13 13:00:48;;;;;;;6.63;2.27;;;9.30;83.80;;;;;;5039726;28;21094;-76
2021/04/13 13:03:20;;;;;;;3.60;1.70;;;9.50;81.90;;;;;;5056105;28;20457;-80
2021/04/13 13:05:48;;;;;;;5.60;1.90;;;9.60;82.80;;;;;;5051483;28;20484;-78
2021/04/13 13:08:28;;;;;;;3.33;1.90;;;9.80;87.30;;;;;;5048205;28;20470;-77
2021/04/13 13:10:57;;;;;;;5.70;1.60;;;9.90;73.00;;;;;;5032418;28;20514;-78
2021/04/13 13:13:31;;;;;;;3.43;1.30;;;9.90;77.90;;;;;;5051316;28;20482;-77
2021/04/13 13:15:59;;;;;;;5.10;1.73;;;9.90;80.20;;;;;;5043395;28;20474;-77
2021/04/13 13:18:31;;;;;;;2.83;2.10;;;9.90;79.60;;;;;;5053045;28;20621;-75
2021/04/13 13:20:59;;;;;;;3.27;1.53;;;9.80;81.20;;;;;;5051802;28;20502;-78
2021/04/13 13:23:39;;;;;;;6.00;3.10;;;9.80;80.10;;;;;;5049976;28;20456;-77
2021/04/13 13:26:23;;;;;;;3.60;1.47;;;9.80;81.40;;;;;;5046963;28;20470;-77
2021/04/13 13:28:49;;;;;;;5.70;2.30;;;9.70;83.00;;;;;;5046223;28;20570;-79
2021/04/13 13:31:37;;;;;;;4.00;1.50;;;9.60;85.60;;;;;;5035683;28;20495;-77
2021/04/13 13:34:11;;;;;;;7.63;1.40;;;9.50;81.20;;;;;;5046264;28;20887;-77
2021/04/13 13:36:41;;;;;;;3.97;1.60;;;9.40;83.80;;;;;;5050146;28;20475;-76
2021/04/13 13:39:13;;;;;;;4.83;2.33;;;9.40;83.80;;;;;;5048851;28;20504;-78
2021/04/13 13:41:43;;;;;;;3.77;1.90;;;9.30;83.80;;;;;;5037866;28;20495;-78
2021/04/13 13:44:22;;;;;;;4.53;1.73;;;9.20;80.80;;;;;;5050454;28;20455;-75
2021/04/13 13:47:06;;;;;;;3.40;1.50;;;9.30;80.10;;;;;;5042409;28;20471;-77
2021/04/13 13:49:47;;;;;;;3.65;2.00;;;9.40;82.60;;;;;;5050115;28;20208;-78